RJNO(METAR)
06/28 16:00
RJNO 280700Z 07011KT 9999 FEW010 SCTXXX 23/19 Q1012 RMK A2991=
戻る
トップページへ戻る
IMOC Co,.Ltd.